Time;durP1;ratioP1;P1;durP2;ratioP2;P2;SDS_P1;SDS_P2;PMS_P1;PMS_P2;Temp;Humidity;BMP_temperature;BMP_pressure;BME280_temperature;BME280_humidity;BME280_pressure;Samples;Min_cycle;Max_cycle;Signal;HPM_P1;HPM_P2
2021/08/31 00:02:13;;;;;;;5.90;5.40;;;18.70;99.90;;;;;;5090600;28;20205;-73
2021/08/31 00:04:40;;;;;;;5.93;5.43;;;18.60;99.90;;;;;;5090581;28;20205;-74
2021/08/31 00:07:08;;;;;;;5.30;4.90;;;18.60;99.90;;;;;;5090386;28;20279;-73
2021/08/31 00:09:36;;;;;;;5.07;4.60;;;18.60;99.90;;;;;;5090642;28;20209;-73
2021/08/31 00:12:03;;;;;;;5.88;5.28;;;18.50;99.90;;;;;;5090129;28;20202;-73
2021/08/31 00:14:30;;;;;;;4.97;4.60;;;18.40;99.90;;;;;;5090615;28;20684;-75
2021/08/31 00:16:57;;;;;;;2.67;2.47;;;18.50;99.90;;;;;;5089918;28;20255;-74
2021/08/31 00:19:24;;;;;;;3.10;2.70;;;18.50;99.90;;;;;;5090757;28;20562;-75
2021/08/31 00:21:51;;;;;;;1.60;1.50;;;18.50;99.90;;;;;;5090292;28;20734;-73
2021/08/31 00:24:19;;;;;;;1.75;1.65;;;18.50;99.90;;;;;;5090946;28;20616;-73
2021/08/31 00:26:46;;;;;;;1.73;1.58;;;18.60;99.90;;;;;;5091070;28;20233;-74
2021/08/31 00:29:13;;;;;;;2.60;2.22;;;18.60;99.90;;;;;;5090194;28;20669;-74
2021/08/31 00:31:40;;;;;;;2.20;1.58;;;18.60;99.90;;;;;;5090496;28;20212;-74
2021/08/31 00:34:07;;;;;;;2.00;1.85;;;18.50;99.90;;;;;;5090116;28;20201;-74
2021/08/31 00:36:34;;;;;;;2.85;1.73;;;18.50;99.90;;;;;;5090674;28;20206;-74
2021/08/31 00:39:01;;;;;;;3.15;2.63;;;18.50;99.90;;;;;;5075819;28;20210;-74
2021/08/31 00:41:30;;;;;;;1.90;1.77;;;18.50;99.90;;;;;;5090714;28;20251;-75
2021/08/31 00:43:57;;;;;;;1.65;1.40;;;18.40;99.90;;;;;;5089992;28;20243;-73
2021/08/31 00:46:24;;;;;;;1.67;1.52;;;18.40;99.90;;;;;;5076279;28;20604;-73
2021/08/31 00:48:51;;;;;;;1.95;1.75;;;18.40;99.90;;;;;;5090322;28;20205;-74
2021/08/31 00:51:20;;;;;;;1.85;1.73;;;18.40;99.90;;;;;;5090324;28;20657;-73
2021/08/31 00:53:49;;;;;;;2.92;2.10;;;18.40;99.90;;;;;;5090411;28;20608;-73
2021/08/31 00:56:16;;;;;;;2.05;1.85;;;18.40;99.90;;;;;;5090368;28;20297;-73
2021/08/31 00:58:44;;;;;;;1.83;1.52;;;18.40;99.90;;;;;;5090389;28;20209;-73
2021/08/31 01:01:11;;;;;;;2.85;1.88;;;18.30;99.90;;;;;;5089603;28;20251;-73
2021/08/31 01:03:40;;;;;;;3.38;2.22;;;18.20;99.90;;;;;;5090651;28;20215;-73
2021/08/31 01:06:08;;;;;;;4.35;1.70;;;18.10;99.90;;;;;;5089519;28;20716;-74
2021/08/31 01:08:35;;;;;;;2.38;2.17;;;18.10;99.90;;;;;;5090725;28;20699;-73
2021/08/31 01:11:04;;;;;;;2.25;1.75;;;18.00;99.90;;;;;;5093565;28;20262;-74
2021/08/31 01:13:32;;;;;;;2.20;2.00;;;17.90;99.90;;;;;;5093788;28;20754;-73
2021/08/31 01:16:00;;;;;;;2.53;2.33;;;17.90;99.90;;;;;;5093757;28;20217;-73
2021/08/31 01:18:27;;;;;;;3.03;1.85;;;17.90;99.90;;;;;;5093722;28;20214;-73
2021/08/31 01:20:56;;;;;;;2.05;1.85;;;17.90;99.90;;;;;;5093642;28;20201;-73
2021/08/31 01:23:24;;;;;;;4.38;1.95;;;17.80;99.90;;;;;;5093698;28;20221;-73
2021/08/31 01:25:52;;;;;;;3.58;2.50;;;17.70;99.90;;;;;;5093250;28;20217;-73
2021/08/31 01:28:22;;;;;;;2.42;2.22;;;17.70;99.90;;;;;;5073266;28;20202;-73
2021/08/31 01:30:50;;;;;;;2.70;2.10;;;17.70;99.90;;;;;;5073533;28;20206;-73
2021/08/31 01:33:18;;;;;;;3.03;1.55;;;17.60;99.90;;;;;;5073829;28;20210;-73
2021/08/31 01:35:45;;;;;;;11.57;3.17;;;17.60;99.90;;;;;;5073621;28;20255;-73
2021/08/31 01:38:12;;;;;;;4.43;2.95;;;17.60;99.90;;;;;;5072808;28;20210;-72
2021/08/31 01:40:39;;;;;;;3.78;3.05;;;17.50;99.90;;;;;;5073621;28;20259;-72
2021/08/31 01:43:08;;;;;;;4.78;2.92;;;17.60;99.90;;;;;;5072944;28;20252;-72
2021/08/31 01:45:45;;;;;;;4.35;2.92;;;17.50;99.90;;;;;;5072947;28;20222;-72
2021/08/31 01:48:12;;;;;;;5.30;3.00;;;17.40;99.90;;;;;;5072826;28;20201;-72
2021/08/31 01:50:39;;;;;;;3.30;2.75;;;17.40;99.90;;;;;;5073127;28;20263;-72
2021/08/31 01:53:07;;;;;;;3.53;3.10;;;17.40;99.90;;;;;;5072767;28;20263;-72
2021/08/31 01:55:34;;;;;;;3.72;2.97;;;17.40;99.90;;;;;;5072944;28;20635;-72
2021/08/31 01:58:01;;;;;;;3.55;3.20;;;17.40;99.90;;;;;;5072675;28;20255;-73
2021/08/31 02:00:30;;;;;;;4.68;3.22;;;17.30;99.90;;;;;;5072940;28;20257;-72
2021/08/31 02:02:59;;;;;;;7.10;3.20;;;17.20;99.90;;;;;;5072349;28;20229;-72
2021/08/31 02:05:26;;;;;;;5.32;3.20;;;17.30;99.90;;;;;;5072812;28;20206;-72
2021/08/31 02:07:54;;;;;;;3.83;2.58;;;17.30;99.90;;;;;;5072535;28;20242;-72
2021/08/31 02:10:21;;;;;;;5.43;2.83;;;17.20;99.90;;;;;;5072791;28;20206;-72
2021/08/31 02:12:48;;;;;;;5.45;2.58;;;17.20;99.90;;;;;;5072997;28;20217;-72
2021/08/31 02:15:15;;;;;;;2.88;2.30;;;17.10;99.90;;;;;;5072995;28;20210;-72
2021/08/31 02:17:43;;;;;;;3.90;2.65;;;17.10;99.90;;;;;;5072442;28;20210;-72
2021/08/31 02:20:12;;;;;;;3.08;2.78;;;17.00;99.90;;;;;;5070888;28;20685;-72
2021/08/31 02:22:39;;;;;;;4.15;3.20;;;17.00;99.90;;;;;;5072037;28;20206;-72
2021/08/31 02:25:07;;;;;;;4.53;3.13;;;17.10;99.90;;;;;;5072360;28;20206;-72
2021/08/31 02:27:34;;;;;;;6.38;2.97;;;17.00;99.90;;;;;;5069902;28;20287;-74
2021/08/31 02:30:01;;;;;;;3.13;2.25;;;17.00;99.90;;;;;;5060945;28;20628;-74
2021/08/31 02:32:28;;;;;;;4.10;2.15;;;17.00;99.90;;;;;;5072167;28;20267;-73
2021/08/31 02:34:56;;;;;;;5.05;2.80;;;17.00;99.90;;;;;;5072129;28;20206;-72
2021/08/31 02:37:24;;;;;;;2.85;2.55;;;17.00;99.90;;;;;;5072354;28;20271;-72
2021/08/31 02:39:50;;;;;;;4.20;2.08;;;17.00;99.90;;;;;;5071822;28;20202;-72
2021/08/31 02:42:18;;;;;;;2.65;2.17;;;17.00;99.90;;;;;;5072480;28;20260;-73
2021/08/31 02:44:45;;;;;;;2.00;1.80;;;16.90;99.90;;;;;;5072346;28;20218;-73
2021/08/31 02:47:12;;;;;;;2.58;2.38;;;16.90;99.90;;;;;;5071657;28;20709;-73
2021/08/31 02:49:39;;;;;;;3.58;2.40;;;16.90;99.90;;;;;;5071818;28;20214;-73
2021/08/31 02:52:08;;;;;;;2.00;1.58;;;16.90;99.90;;;;;;5071719;28;20198;-73
2021/08/31 02:54:35;;;;;;;3.15;2.53;;;16.80;99.90;;;;;;5072163;28;20206;-73
2021/08/31 02:57:02;;;;;;;3.15;2.10;;;16.70;99.90;;;;;;5057841;28;20206;-73
2021/08/31 02:59:30;;;;;;;3.03;2.08;;;16.80;99.90;;;;;;5071974;28;20263;-73
2021/08/31 03:04:42;;;;;;;2.05;1.95;;;16.90;99.90;;;;;;5071212;28;20263;-72
2021/08/31 03:07:12;;;;;;;5.10;2.05;;;17.00;99.90;;;;;;5071096;28;20287;-72
2021/08/31 03:09:39;;;;;;;3.05;1.73;;;17.10;99.90;;;;;;5071806;28;20239;-73
2021/08/31 03:12:07;;;;;;;2.45;2.25;;;17.20;99.90;;;;;;5070740;28;20674;-73
2021/08/31 03:14:34;;;;;;;2.20;2.00;;;17.30;99.90;;;;;;5071555;28;20206;-73
2021/08/31 03:17:01;;;;;;;3.60;2.10;;;17.40;99.90;;;;;;5071068;28;20210;-73
2021/08/31 03:19:28;;;;;;;2.60;2.13;;;17.40;99.90;;;;;;5071147;28;20751;-73
2021/08/31 03:21:56;;;;;;;3.33;2.17;;;17.40;99.90;;;;;;5070821;28;20624;-73
2021/08/31 03:24:26;;;;;;;2.42;2.10;;;17.40;99.90;;;;;;5071427;28;20202;-73
2021/08/31 03:26:53;;;;;;;3.15;2.00;;;17.40;99.90;;;;;;5070977;28;20226;-73
2021/08/31 03:29:21;;;;;;;3.40;2.63;;;17.30;99.90;;;;;;5071618;28;20263;-75
2021/08/31 03:31:48;;;;;;;2.70;1.95;;;17.30;99.90;;;;;;5071107;28;20658;-75
2021/08/31 03:34:15;;;;;;;3.10;2.42;;;17.30;99.90;;;;;;5071048;28;20263;-75
2021/08/31 03:36:43;;;;;;;3.42;2.70;;;17.40;99.90;;;;;;5070896;28;20214;-74
2021/08/31 03:39:10;;;;;;;2.42;2.22;;;17.30;99.90;;;;;;5070553;28;20213;-72
2021/08/31 03:41:38;;;;;;;1.70;1.60;;;17.40;99.90;;;;;;5071062;28;20229;-73
2021/08/31 03:44:05;;;;;;;2.83;1.67;;;17.40;99.90;;;;;;5070851;28;20214;-73
2021/08/31 03:46:32;;;;;;;2.28;2.08;;;17.40;99.90;;;;;;5070552;28;20756;-73
2021/08/31 03:49:00;;;;;;;2.75;1.67;;;17.30;99.90;;;;;;5070434;28;20237;-73
2021/08/31 03:51:27;;;;;;;3.28;2.60;;;17.30;99.90;;;;;;5070583;28;20214;-73
2021/08/31 03:53:54;;;;;;;4.15;1.67;;;17.40;99.90;;;;;;5070544;28;20209;-73
2021/08/31 03:56:21;;;;;;;2.15;1.75;;;17.30;99.90;;;;;;5070834;28;20209;-72
2021/08/31 03:58:49;;;;;;;2.28;1.70;;;17.30;99.90;;;;;;5071411;28;20685;-72
2021/08/31 04:01:16;;;;;;;1.85;1.75;;;17.40;99.90;;;;;;5071225;28;20209;-72
2021/08/31 04:03:43;;;;;;;2.28;2.08;;;17.40;99.90;;;;;;5070349;28;20666;-72
2021/08/31 04:06:10;;;;;;;3.38;1.95;;;17.40;99.90;;;;;;5070396;28;20210;-72
2021/08/31 04:08:37;;;;;;;3.78;2.10;;;17.40;99.90;;;;;;5070223;28;20659;-72
2021/08/31 04:11:04;;;;;;;2.38;2.17;;;17.50;99.90;;;;;;5070553;28;20297;-72
2021/08/31 04:13:31;;;;;;;2.55;1.75;;;17.50;99.90;;;;;;5070581;28;20206;-72
2021/08/31 04:16:00;;;;;;;2.28;2.00;;;17.50;99.90;;;;;;5070427;28;20217;-72
2021/08/31 04:18:27;;;;;;;3.08;2.03;;;17.50;99.90;;;;;;5070421;28;20371;-72
2021/08/31 04:20:54;;;;;;;1.67;1.58;;;17.40;99.90;;;;;;5070161;28;20214;-72
2021/08/31 04:23:21;;;;;;;1.85;1.75;;;17.30;99.90;;;;;;5070680;28;20207;-72
2021/08/31 04:25:48;;;;;;;2.33;2.13;;;17.40;99.90;;;;;;5070473;28;20252;-72
2021/08/31 04:28:15;;;;;;;2.13;1.90;;;17.30;99.90;;;;;;5070196;28;20716;-72
2021/08/31 04:30:42;;;;;;;2.20;1.75;;;17.20;99.90;;;;;;5070298;28;20202;-72
2021/08/31 04:33:10;;;;;;;3.83;2.05;;;17.10;99.90;;;;;;5069717;28;20218;-72
2021/08/31 04:35:38;;;;;;;3.75;1.85;;;17.10;99.90;;;;;;5070296;28;20255;-72
2021/08/31 04:38:05;;;;;;;5.00;2.85;;;17.10;99.90;;;;;;5069783;28;20279;-72
2021/08/31 04:40:32;;;;;;;2.05;1.65;;;17.10;99.90;;;;;;5070613;28;20244;-72
2021/08/31 04:42:59;;;;;;;2.47;1.70;;;17.00;99.90;;;;;;5070004;28;20271;-73
2021/08/31 04:45:26;;;;;;;3.05;1.65;;;17.00;99.90;;;;;;5073702;28;20259;-73
2021/08/31 04:47:53;;;;;;;2.45;1.70;;;17.10;99.90;;;;;;5073200;28;20237;-72
2021/08/31 04:50:21;;;;;;;2.25;2.03;;;17.10;99.90;;;;;;5074301;28;20731;-72
2021/08/31 04:52:48;;;;;;;3.53;1.83;;;17.20;99.90;;;;;;5074025;28;20214;-72
2021/08/31 04:55:16;;;;;;;3.30;2.00;;;17.20;99.90;;;;;;5074299;28;20259;-72
2021/08/31 04:57:43;;;;;;;2.30;1.67;;;17.10;99.90;;;;;;5074065;28;20746;-72
2021/08/31 05:00:11;;;;;;;3.22;2.28;;;17.10;99.90;;;;;;5073221;28;20581;-73
2021/08/31 05:02:38;;;;;;;3.20;2.28;;;17.10;99.90;;;;;;5073949;28;20729;-73
2021/08/31 05:05:06;;;;;;;2.92;1.80;;;17.00;99.90;;;;;;5073594;28;20218;-74
2021/08/31 05:07:34;;;;;;;2.92;1.67;;;17.00;99.90;;;;;;5074124;28;20279;-72
2021/08/31 05:10:01;;;;;;;3.53;1.85;;;16.90;99.90;;;;;;5073739;28;20259;-73
2021/08/31 05:12:28;;;;;;;3.53;1.75;;;16.90;99.90;;;;;;5074066;28;20206;-72
2021/08/31 05:14:55;;;;;;;5.22;2.25;;;16.80;99.90;;;;;;5060014;28;20210;-72
2021/08/31 05:17:22;;;;;;;2.15;1.58;;;16.90;99.90;;;;;;5073227;28;20206;-72
2021/08/31 05:19:49;;;;;;;2.13;1.92;;;16.90;99.90;;;;;;5073969;28;20213;-72
2021/08/31 05:22:16;;;;;;;2.50;2.25;;;16.80;99.90;;;;;;5073665;28;20719;-74
2021/08/31 05:24:46;;;;;;;2.65;2.17;;;16.80;99.90;;;;;;5074228;28;20271;-74
2021/08/31 05:27:13;;;;;;;4.18;2.00;;;16.70;99.90;;;;;;5073578;28;20232;-73
2021/08/31 05:29:40;;;;;;;6.53;2.38;;;16.60;99.90;;;;;;5073328;28;20669;-74
2021/08/31 05:32:08;;;;;;;2.10;2.00;;;16.60;99.90;;;;;;5073145;28;20259;-73
2021/08/31 05:34:35;;;;;;;5.00;2.60;;;16.60;99.90;;;;;;5073735;28;20201;-72
2021/08/31 05:37:02;;;;;;;4.53;2.20;;;16.70;99.90;;;;;;5073145;28;20228;-73
2021/08/31 05:39:33;;;;;;;2.10;1.88;;;16.60;99.90;;;;;;5072788;28;20717;-74
2021/08/31 05:42:02;;;;;;;3.40;2.08;;;16.60;99.90;;;;;;5061459;28;20213;-73
2021/08/31 05:44:29;;;;;;;3.92;2.35;;;16.60;99.90;;;;;;5060950;28;20305;-72
2021/08/31 05:46:56;;;;;;;4.15;2.60;;;16.60;99.90;;;;;;5061376;28;20198;-73
2021/08/31 05:49:23;;;;;;;2.47;2.28;;;16.60;99.90;;;;;;5064821;28;20197;-73
2021/08/31 05:51:50;;;;;;;4.45;2.20;;;16.60;99.90;;;;;;5066779;28;20613;-72
2021/08/31 05:54:21;;;;;;;2.15;1.85;;;16.60;99.90;;;;;;5069975;28;20229;-73
2021/08/31 05:56:48;;;;;;;3.58;2.40;;;16.70;99.90;;;;;;5071123;28;20203;-71
2021/08/31 05:59:17;;;;;;;3.83;2.67;;;16.80;99.90;;;;;;5064111;28;20358;-68
2021/08/31 06:01:46;;;;;;;2.90;2.28;;;16.80;99.90;;;;;;5064662;28;20260;-71
2021/08/31 06:04:13;;;;;;;4.28;2.72;;;16.80;99.90;;;;;;5072250;28;20221;-69
2021/08/31 06:06:40;;;;;;;2.38;2.13;;;16.70;99.90;;;;;;5072478;28;20259;-69
2021/08/31 06:09:08;;;;;;;2.97;2.22;;;16.70;99.90;;;;;;5069185;28;20283;-69
2021/08/31 06:11:38;;;;;;;5.63;2.22;;;16.60;99.90;;;;;;5072662;28;20613;-68
2021/08/31 06:14:05;;;;;;;4.47;2.70;;;16.60;99.90;;;;;;5058646;28;20687;-69
2021/08/31 06:16:33;;;;;;;6.13;2.47;;;16.60;99.90;;;;;;5060793;28;20210;-70
2021/08/31 06:19:01;;;;;;;3.70;2.40;;;16.60;99.90;;;;;;5067712;28;20253;-70
2021/08/31 06:21:29;;;;;;;2.17;1.98;;;16.60;99.90;;;;;;5069300;28;20202;-68
2021/08/31 06:23:56;;;;;;;3.40;2.20;;;16.70;99.90;;;;;;5071585;28;20610;-69
2021/08/31 06:26:23;;;;;;;2.42;1.98;;;16.80;99.90;;;;;;5058204;28;20207;-69
2021/08/31 06:28:50;;;;;;;2.30;2.08;;;16.90;99.90;;;;;;5071557;28;20283;-69
2021/08/31 06:31:17;;;;;;;2.03;1.90;;;16.90;99.90;;;;;;5072538;28;20202;-68
2021/08/31 06:33:46;;;;;;;2.45;2.25;;;16.90;99.90;;;;;;5072184;28;20206;-70
2021/08/31 06:36:14;;;;;;;2.40;2.10;;;16.90;99.90;;;;;;5071815;28;20664;-68
2021/08/31 06:38:41;;;;;;;3.72;2.17;;;16.80;99.90;;;;;;5063013;28;20210;-67
2021/08/31 06:41:08;;;;;;;2.88;2.22;;;16.90;99.90;;;;;;5062005;28;20202;-71
2021/08/31 06:43:35;;;;;;;2.30;2.10;;;16.90;99.90;;;;;;5068471;28;20218;-68
2021/08/31 06:46:02;;;;;;;2.83;2.22;;;16.90;99.90;;;;;;5068127;28;20217;-68
2021/08/31 06:48:29;;;;;;;2.30;1.83;;;17.00;99.90;;;;;;5071471;28;20238;-72
2021/08/31 06:50:57;;;;;;;3.65;2.20;;;17.20;99.90;;;;;;5065939;28;20675;-69
2021/08/31 06:53:24;;;;;;;2.60;1.77;;;17.30;99.90;;;;;;5067838;28;20206;-69
2021/08/31 06:55:51;;;;;;;2.60;2.17;;;17.50;99.90;;;;;;5071504;28;20590;-74
2021/08/31 06:58:18;;;;;;;2.38;2.00;;;17.60;99.90;;;;;;5071762;28;20696;-73
2021/08/31 07:00:45;;;;;;;5.20;2.03;;;17.60;99.90;;;;;;5066092;28;20233;-69
2021/08/31 07:03:12;;;;;;;1.95;1.83;;;17.60;99.90;;;;;;5067547;28;20206;-68
2021/08/31 07:05:39;;;;;;;3.38;1.83;;;17.60;99.90;;;;;;5066131;28;20271;-67
2021/08/31 07:08:07;;;;;;;3.15;2.15;;;17.50;99.90;;;;;;5065820;28;20225;-70
2021/08/31 07:10:34;;;;;;;2.50;2.30;;;17.50;99.90;;;;;;5065892;28;20206;-71
2021/08/31 07:13:02;;;;;;;3.45;1.70;;;17.70;99.90;;;;;;5065706;28;20244;-72
2021/08/31 07:15:28;;;;;;;2.10;1.70;;;17.90;99.90;;;;;;5058238;28;20202;-68
2021/08/31 07:17:56;;;;;;;1.85;1.65;;;17.90;99.90;;;;;;5070860;28;20635;-68
2021/08/31 07:20:23;;;;;;;1.73;1.63;;;18.00;99.90;;;;;;5069743;28;20198;-69
2021/08/31 07:22:50;;;;;;;4.78;2.22;;;18.00;99.90;;;;;;5060662;28;20261;-69
2021/08/31 07:25:18;;;;;;;3.72;2.22;;;18.10;99.90;;;;;;5065520;28;20260;-70
2021/08/31 07:27:45;;;;;;;5.18;2.70;;;18.10;99.90;;;;;;5069365;28;20230;-70
2021/08/31 07:30:13;;;;;;;2.83;1.98;;;18.10;99.90;;;;;;5064954;28;20681;-71
2021/08/31 07:32:40;;;;;;;4.72;2.13;;;18.20;99.90;;;;;;5071070;28;20263;-69
2021/08/31 07:35:09;;;;;;;5.88;2.33;;;18.20;99.90;;;;;;5070372;28;20206;-71
2021/08/31 07:37:36;;;;;;;4.68;3.05;;;18.30;99.90;;;;;;5068792;28;20259;-69
2021/08/31 07:40:04;;;;;;;4.45;2.90;;;18.30;99.90;;;;;;5066682;28;20202;-68
2021/08/31 07:42:33;;;;;;;4.43;2.33;;;18.40;99.90;;;;;;5069232;28;20272;-70
2021/08/31 07:45:04;;;;;;;5.63;2.00;;;18.40;99.90;;;;;;5068175;28;20233;-71
2021/08/31 07:47:31;;;;;;;2.33;1.38;;;18.50;99.90;;;;;;5059025;28;20203;-71
2021/08/31 07:49:59;;;;;;;3.03;2.08;;;18.40;99.90;;;;;;5056407;28;20301;-71
2021/08/31 07:52:26;;;;;;;3.45;2.17;;;18.50;99.90;;;;;;5070745;28;20681;-68
2021/08/31 07:54:53;;;;;;;3.17;1.63;;;18.70;99.90;;;;;;5058904;28;20261;-72
2021/08/31 07:57:20;;;;;;;2.67;2.10;;;18.70;99.90;;;;;;5060028;28;20206;-74
2021/08/31 07:59:49;;;;;;;3.97;2.17;;;18.90;99.90;;;;;;5070320;28;20589;-69
2021/08/31 08:02:16;;;;;;;3.20;1.20;;;19.10;99.90;;;;;;5064477;28;20259;-69
2021/08/31 08:04:42;;;;;;;4.68;1.75;;;19.00;99.90;;;;;;5069082;28;20252;-71
2021/08/31 08:07:09;;;;;;;2.40;2.03;;;19.20;99.90;;;;;;5068026;28;20627;-70
2021/08/31 08:09:36;;;;;;;2.08;1.52;;;19.30;99.90;;;;;;5069733;28;20233;-70
2021/08/31 08:12:04;;;;;;;2.67;1.92;;;19.50;99.90;;;;;;5069856;28;20202;-71
2021/08/31 08:14:32;;;;;;;4.70;2.10;;;19.70;99.90;;;;;;5061837;28;20207;-70
2021/08/31 08:17:00;;;;;;;2.90;1.65;;;19.70;99.90;;;;;;5062741;28;20239;-70
2021/08/31 08:19:27;;;;;;;2.30;1.55;;;19.80;99.90;;;;;;5054117;28;20255;-70
2021/08/31 08:21:54;;;;;;;2.05;1.50;;;20.10;99.90;;;;;;5063463;28;20198;-72
2021/08/31 08:24:21;;;;;;;2.92;1.60;;;20.00;99.90;;;;;;5061995;28;20255;-69
2021/08/31 08:26:51;;;;;;;4.07;1.45;;;20.10;99.90;;;;;;5066516;28;20210;-69
2021/08/31 08:29:19;;;;;;;4.78;2.40;;;20.20;99.90;;;;;;5069925;28;20272;-70
2021/08/31 08:31:47;;;;;;;3.47;1.90;;;20.30;99.90;;;;;;5061431;28;20247;-69
2021/08/31 08:34:16;;;;;;;4.45;1.77;;;20.40;99.90;;;;;;5058081;28;20666;-70
2021/08/31 08:36:43;;;;;;;2.30;2.13;;;20.60;99.90;;;;;;5062864;28;20203;-69
2021/08/31 08:39:10;;;;;;;1.95;1.52;;;20.70;99.90;;;;;;5065841;28;20620;-71
2021/08/31 08:41:37;;;;;;;6.00;1.88;;;20.90;99.90;;;;;;5056596;28;20279;-70
2021/08/31 08:44:04;;;;;;;2.03;1.58;;;21.40;99.90;;;;;;5069838;28;20214;-69
2021/08/31 08:46:31;;;;;;;3.05;1.67;;;21.10;99.90;;;;;;5067216;28;20210;-69
2021/08/31 08:48:59;;;;;;;5.43;2.72;;;21.00;99.90;;;;;;5059034;28;20226;-69
2021/08/31 08:51:27;;;;;;;3.90;1.83;;;20.90;99.90;;;;;;5069680;28;20206;-70
2021/08/31 08:53:54;;;;;;;1.80;1.70;;;21.10;99.90;;;;;;5061682;28;20263;-71
2021/08/31 08:56:21;;;;;;;2.78;2.10;;;21.40;99.90;;;;;;5069867;28;20255;-68
2021/08/31 08:58:48;;;;;;;2.55;1.48;;;21.40;99.90;;;;;;5059655;28;20587;-69
2021/08/31 09:01:15;;;;;;;4.05;1.88;;;21.40;99.90;;;;;;5062122;28;20202;-70
2021/08/31 09:03:53;;;;;;;6.60;1.70;;;21.50;99.90;;;;;;5069766;28;20209;-69
2021/08/31 09:06:21;;;;;;;1.55;1.45;;;21.50;99.90;;;;;;5068462;28;20248;-69
2021/08/31 09:08:57;;;;;;;2.38;2.15;;;21.90;99.90;;;;;;5068944;28;20276;-71
2021/08/31 09:11:27;;;;;;;3.90;2.30;;;22.40;99.90;;;;;;5068293;28;20205;-70
2021/08/31 09:14:22;;;;;;;6.75;2.28;;;22.90;99.90;;;;;;5059204;28;20210;-70
2021/08/31 09:16:51;;;;;;;3.53;2.15;;;24.10;99.90;;;;;;5069476;28;20206;-69
2021/08/31 09:19:18;;;;;;;4.63;1.90;;;25.00;99.90;;;;;;5069961;28;20252;-70
2021/08/31 09:21:47;;;;;;;3.20;2.08;;;24.50;99.90;;;;;;5069943;28;20256;-70
2021/08/31 09:24:16;;;;;;;1.98;1.45;;;24.50;99.90;;;;;;5069815;28;20222;-70
2021/08/31 09:26:44;;;;;;;4.40;1.77;;;27.20;99.90;;;;;;5069677;28;20621;-71
2021/08/31 09:29:18;;;;;;;3.08;1.35;;;28.30;99.90;;;;;;5069171;28;20238;-70
2021/08/31 09:31:51;;;;;;;4.50;2.08;;;27.30;99.90;;;;;;5073738;28;20203;-71
2021/08/31 09:34:48;;;;;;;4.55;1.75;;;28.70;99.90;;;;;;5073544;28;20283;-71
2021/08/31 09:37:32;;;;;;;3.40;1.27;;;29.80;99.90;;;;;;5030609;28;20211;-70
2021/08/31 09:40:13;;;;;;;3.35;1.73;;;29.90;99.90;;;;;;5068070;28;20209;-70
2021/08/31 09:42:58;;;;;;;1.48;1.33;;;32.10;99.90;;;;;;5069998;28;20293;-69
2021/08/31 09:45:28;;;;;;;3.50;2.28;;;32.90;99.90;;;;;;5061341;28;20255;-71
2021/08/31 09:47:56;;;;;;;2.95;1.75;;;31.70;99.90;;;;;;5072190;28;20218;-70
2021/08/31 09:50:30;;;;;;;1.95;1.58;;;32.50;99.90;;;;;;5073035;28;20229;-71
2021/08/31 09:53:14;;;;;;;4.53;1.85;;;34.80;99.90;;;;;;5072558;28;20270;-70
2021/08/31 09:55:44;;;;;;;2.85;1.77;;;34.40;99.80;;;;;;5073003;28;20206;-71
2021/08/31 09:58:14;;;;;;;2.17;1.70;;;34.50;99.80;;;;;;5072074;28;20628;-70
2021/08/31 10:00:43;;;;;;;2.30;1.40;;;32.60;99.60;;;;;;5072822;28;20681;-71
2021/08/31 10:03:10;;;;;;;2.42;1.88;;;32.90;99.90;;;;;;5072443;28;20263;-71
2021/08/31 10:05:38;;;;;;;1.83;1.45;;;31.70;99.70;;;;;;5072622;28;20201;-69
2021/08/31 10:08:06;;;;;;;3.40;1.33;;;32.60;99.90;;;;;;5072365;28;20205;-71
2021/08/31 10:10:36;;;;;;;1.83;1.65;;;33.70;99.70;;;;;;5072429;28;20233;-72
2021/08/31 10:13:11;;;;;;;1.70;1.60;;;35.30;98.80;;;;;;5072083;28;20715;-72
2021/08/31 10:15:39;;;;;;;1.70;1.33;;;37.30;98.10;;;;;;5072267;28;20743;-72
2021/08/31 10:18:08;;;;;;;3.33;2.47;;;36.40;97.80;;;;;;5071935;28;20292;-74
2021/08/31 10:20:43;;;;;;;2.60;1.52;;;33.40;98.20;;;;;;5065504;28;20209;-74
2021/08/31 10:23:11;;;;;;;3.63;1.67;;;34.20;98.10;;;;;;5054211;28;20591;-72
2021/08/31 10:25:38;;;;;;;2.15;1.63;;;35.10;98.70;;;;;;5065254;28;20259;-72
2021/08/31 10:28:22;;;;;;;4.25;1.90;;;35.80;97.50;;;;;;5061204;28;20210;-72
2021/08/31 10:30:49;;;;;;;2.15;1.77;;;36.20;97.10;;;;;;5070111;28;20201;-72
2021/08/31 10:33:36;;;;;;;3.20;2.22;;;32.10;97.80;;;;;;5070792;28;20197;-72
2021/08/31 10:36:06;;;;;;;3.28;1.80;;;27.90;99.90;;;;;;5071360;28;20670;-72
2021/08/31 10:38:55;;;;;;;4.78;1.83;;;26.50;99.90;;;;;;5071111;28;20213;-72
2021/08/31 10:41:44;;;;;;;1.52;1.30;;;25.90;99.90;;;;;;5067809;28;20260;-71
2021/08/31 10:44:44;;;;;;;4.32;2.60;;;25.90;99.90;;;;;;5071641;28;20222;-71
2021/08/31 10:47:31;;;;;;;1.58;1.48;;;25.70;99.90;;;;;;5066390;28;20260;-71
2021/08/31 10:50:26;;;;;;;2.08;1.60;;;25.60;99.90;;;;;;5069177;28;20238;-72
2021/08/31 10:53:01;;;;;;;3.17;1.50;;;25.50;99.90;;;;;;5070568;28;20210;-72
2021/08/31 10:55:46;;;;;;;1.98;1.77;;;25.70;99.90;;;;;;5061081;28;20247;-72
2021/08/31 10:58:47;;;;;;;1.52;1.23;;;25.70;99.90;;;;;;5082155;28;20729;-71
2021/08/31 11:01:17;;;;;;;2.03;1.33;;;25.60;99.90;;;;;;5072030;28;20213;-71
2021/08/31 11:03:45;;;;;;;5.55;1.77;;;25.40;99.90;;;;;;5071624;28;20202;-71
2021/08/31 11:06:33;;;;;;;3.72;1.88;;;25.20;99.90;;;;;;5069874;28;20210;-73
2021/08/31 11:09:22;;;;;;;2.72;1.27;;;25.40;99.90;;;;;;5059209;28;20230;-70
2021/08/31 11:12:08;;;;;;;2.95;1.20;;;25.70;99.90;;;;;;5058456;28;20206;-73
2021/08/31 11:14:52;;;;;;;2.90;1.38;;;25.80;99.90;;;;;;5070316;28;20205;-71
2021/08/31 11:17:36;;;;;;;2.50;1.73;;;25.60;99.90;;;;;;5065664;28;20252;-70
2021/08/31 11:20:21;;;;;;;1.55;1.45;;;25.50;99.90;;;;;;5068838;28;20289;-71
2021/08/31 11:22:50;;;;;;;1.70;1.55;;;25.80;99.90;;;;;;5071477;28;20206;-71
2021/08/31 11:25:25;;;;;;;2.03;1.40;;;25.80;99.90;;;;;;5062374;28;20302;-71
2021/08/31 11:27:55;;;;;;;1.70;1.60;;;25.90;99.90;;;;;;5070764;28;20206;-71
2021/08/31 11:30:22;;;;;;;3.20;1.38;;;25.90;99.90;;;;;;5070770;28;20233;-71
2021/08/31 11:33:06;;;;;;;1.73;1.20;;;26.20;99.90;;;;;;5071082;28;20209;-71
2021/08/31 11:35:33;;;;;;;1.92;0.90;;;26.10;99.90;;;;;;5070685;28;20210;-71
2021/08/31 11:38:00;;;;;;;1.45;1.17;;;25.60;99.90;;;;;;5070508;28;20202;-71
2021/08/31 11:40:28;;;;;;;3.78;1.33;;;25.80;99.90;;;;;;5070785;28;20670;-71
2021/08/31 11:42:56;;;;;;;1.33;1.10;;;25.90;99.90;;;;;;5069739;28;20202;-70
2021/08/31 11:45:37;;;;;;;1.65;1.20;;;26.00;99.90;;;;;;5070731;28;20214;-73
2021/08/31 11:48:07;;;;;;;3.08;1.52;;;25.90;99.90;;;;;;5070410;28;20252;-73
2021/08/31 11:50:35;;;;;;;2.13;1.48;;;25.90;99.90;;;;;;5070865;28;20225;-73
2021/08/31 11:53:22;;;;;;;2.85;1.13;;;25.70;99.90;;;;;;5056310;28;20280;-74
2021/08/31 11:56:00;;;;;;;2.50;1.38;;;25.70;99.90;;;;;;5067247;28;20213;-74
2021/08/31 11:58:29;;;;;;;1.65;1.55;;;25.90;99.90;;;;;;5070430;28;20251;-73
2021/08/31 12:00:56;;;;;;;1.98;1.58;;;26.00;99.90;;;;;;5069283;28;20206;-74
2021/08/31 12:03:28;;;;;;;7.82;2.13;;;26.20;99.90;;;;;;5069480;28;20259;-73
2021/08/31 12:05:58;;;;;;;1.33;1.05;;;25.90;99.90;;;;;;5063208;28;20669;-72
2021/08/31 12:08:29;;;;;;;4.75;1.25;;;26.20;99.90;;;;;;5067771;28;20256;-74
2021/08/31 12:10:57;;;;;;;1.30;1.20;;;26.30;99.90;;;;;;5060721;28;20573;-75
2021/08/31 12:13:24;;;;;;;2.38;1.42;;;26.30;99.90;;;;;;5057616;28;20210;-72
2021/08/31 12:15:55;;;;;;;1.38;1.17;;;26.50;99.90;;;;;;5058642;28;20206;-73
2021/08/31 12:18:27;;;;;;;1.45;1.35;;;26.50;99.90;;;;;;5058027;28;20257;-75
2021/08/31 12:21:13;;;;;;;1.58;1.38;;;26.40;99.90;;;;;;5058312;28;20206;-73
2021/08/31 12:23:40;;;;;;;2.05;1.40;;;26.50;99.90;;;;;;5069009;28;20252;-74
2021/08/31 12:26:07;;;;;;;2.38;1.40;;;26.30;99.90;;;;;;5069935;28;20206;-73
2021/08/31 12:28:34;;;;;;;1.75;0.88;;;26.30;99.90;;;;;;5063905;28;20251;-74
2021/08/31 12:31:12;;;;;;;1.20;1.00;;;26.50;99.90;;;;;;5060346;28;20763;-74
2021/08/31 12:33:40;;;;;;;1.50;1.40;;;26.60;99.90;;;;;;5064616;28;20237;-73
2021/08/31 12:36:11;;;;;;;2.42;1.23;;;26.60;99.90;;;;;;5060895;28;20202;-73
2021/08/31 12:38:40;;;;;;;2.88;0.98;;;26.50;99.90;;;;;;5067436;28;20292;-71
2021/08/31 12:41:11;;;;;;;1.80;1.20;;;26.70;99.90;;;;;;5068211;28;20210;-74
2021/08/31 12:43:47;;;;;;;1.10;1.00;;;27.00;99.90;;;;;;5064954;28;20245;-72
2021/08/31 12:46:22;;;;;;;1.63;1.52;;;27.00;99.90;;;;;;5060391;28;20202;-71
2021/08/31 12:49:00;;;;;;;2.17;1.25;;;26.80;99.90;;;;;;5055868;28;20264;-77
2021/08/31 12:51:33;;;;;;;2.17;1.05;;;27.00;99.90;;;;;;5055963;28;20246;-72
2021/08/31 12:54:00;;;;;;;1.40;1.13;;;27.30;99.90;;;;;;5063042;28;20203;-73
2021/08/31 12:56:27;;;;;;;1.80;1.45;;;26.90;99.90;;;;;;5057712;28;20206;-72
2021/08/31 12:59:05;;;;;;;2.55;1.35;;;27.10;99.70;;;;;;5064103;28;20626;-73
2021/08/31 13:01:49;;;;;;;1.63;1.20;;;27.10;99.90;;;;;;5059984;28;20271;-75
2021/08/31 13:04:18;;;;;;;1.60;1.27;;;27.10;99.90;;;;;;5057033;28;20199;-73